Data for 11/20/2015

Time Sea-Level Adjusted Pressure Absolute Pressure Temperature Relative Humidity Dew Point   
(mb) (inHg) (mb) (inHg) (C) (F) (%) (C) (F)
00:05 1016 30 845 24.95 -2.4 27.7 92 -3.5 25.7
00:10 1016 30 845 24.95 -2.4 27.6 92 -3.6 25.6
00:15 1016 30 845 24.95 -2.4 27.6 92 -3.5 25.6
00:20 1016 30 845 24.95 -2.4 27.6 92 -3.5 25.7
00:25 1016 30 845 24.95 -2.4 27.6 92 -3.5 25.7
00:30 1016 30 845 24.95 -2.4 27.6 92 -3.5 25.6
00:35 1016 30 845 24.95 -2.5 27.6 92 -3.6 25.6
00:40 1016 30 845 24.95 -2.4 27.6 92 -3.5 25.6
00:45 1016 30 845 24.95 -2.5 27.6 92 -3.6 25.5
00:50 1016 30 845 24.95 -2.6 27.4 92 -3.6 25.5
00:55 1016 30 845 24.95 -2.6 27.4 92 -3.6 25.4
01:00 1016 30 845 24.95 -2.6 27.3 92 -3.7 25.3
01:05 1016 30 845 24.95 -2.7 27.2 93 -3.7 25.3
01:10 1016 30 846 24.98 -2.6 27.2 93 -3.7 25.4
01:15 1016 30 846 24.98 -2.6 27.3 92 -3.7 25.4
01:20 1016 30 846 24.98 -2.6 27.3 93 -3.6 25.5
01:25 1016 30 846 24.98 -2.6 27.3 93 -3.6 25.5
01:30 1016 30 846 24.98 -2.6 27.4 93 -3.6 25.5
01:35 1016 30 846 24.98 -2.6 27.4 92 -3.6 25.5
01:40 1016 30 846 24.98 -2.6 27.4 93 -3.6 25.5
01:45 1017 30.03 846 24.98 -2.6 27.4 92 -3.6 25.4
01:50 1017 30.03 846 24.98 -2.6 27.4 92 -3.6 25.5
01:55 1017 30.03 846 24.98 -2.5 27.4 93 -3.6 25.6
02:00 1017 30.03 846 24.98 -2.5 27.5 93 -3.5 25.6
02:05 1017 30.03 846 24.98 -2.5 27.4 93 -3.6 25.5
02:10 1017 30.03 846 24.98 -2.6 27.4 93 -3.6 25.6
02:15 1017 30.03 846 24.98 -2.6 27.3 93 -3.6 25.5
02:20 1017 30.03 846 24.98 -2.6 27.4 93 -3.6 25.6
02:25 1017 30.03 846 24.98 -2.6 27.4 93 -3.6 25.6
02:30 1017 30.03 846 24.98 -2.6 27.4 93 -3.6 25.6
02:35 1017 30.03 846 24.98 -2.5 27.5 93 -3.5 25.8
02:40 1017 30.03 846 24.98 -2.5 27.5 93 -3.5 25.7
02:45 1017 30.03 846 24.98 -2.6 27.3 93 -3.6 25.5
02:50 1017 30.03 846 24.98 -2.6 27.3 93 -3.6 25.4
02:55 1017 30.03 846 24.98 -2.7 27.2 93 -3.7 25.3
03:00 1017 30.03 846 24.98 -2.7 27.1 92 -3.8 25.2
03:05 1017 30.03 846 24.98 -2.8 27 93 -3.8 25.1
03:10 1017 30.03 846 24.98 -2.8 27 92 -3.8 25.1
03:15 1017 30.03 846 24.98 -2.7 27.1 92 -3.8 25.2
03:20 1017 30.03 847 25.01 -2.7 27.1 93 -3.8 25.2
03:25 1017 30.03 847 25.01 -2.7 27.1 92 -3.8 25.2
03:30 1018 30.06 847 25.01 -2.7 27.1 92 -3.9 25
03:35 1018 30.06 847 25.01 -2.8 27 92 -4 24.9
03:40 1018 30.06 847 25.01 -2.8 26.9 92 -4 24.8
03:45 1018 30.06 847 25.01 -2.8 27 91 -4.1 24.7
03:50 1018 30.06 847 25.01 -2.9 26.8 91 -4.2 24.4
03:55 1018 30.06 847 25.01 -3 26.7 89 -4.5 24
04:00 1018 30.06 847 25.01 -3 26.7 90 -4.4 24.1
04:05 1018 30.06 847 25.01 -3 26.5 91 -4.4 24.1
04:10 1018 30.06 847 25.01 -3.1 26.5 90 -4.4 24.1
04:15 1018 30.06 847 25.01 -3.1 26.5 90 -4.4 24
04:20 1018 30.06 847 25.01 -3.1 26.5 90 -4.5 23.8
04:25 1018 30.06 847 25.01 -3.1 26.4 89 -4.7 23.6
04:30 1018 30.06 847 25.01 -3.2 26.3 89 -4.7 23.5
04:35 1018 30.06 847 25.01 -3.2 26.2 89 -4.7 23.5
04:40 1018 30.06 847 25.01 -3.2 26.2 89 -4.8 23.3
04:45 1018 30.06 848 25.04 -3.3 26.1 89 -4.9 23.2
04:50 1018 30.06 848 25.04 -3.3 26 88 -5.1 22.9
04:55 1018 30.06 848 25.04 -3.3 26 88 -5.1 22.8
05:00 1019 30.09 848 25.04 -3.4 25.9 87 -5.2 22.6
05:05 1019 30.09 848 25.04 -3.4 25.8 87 -5.4 22.4
05:10 1019 30.09 848 25.04 -3.4 25.8 88 -5.2 22.7
05:15 1019 30.09 848 25.04 -3.5 25.8 89 -5.1 22.8
05:20 1019 30.09 848 25.04 -3.5 25.7 89 -5.1 22.8
05:25 1019 30.09 848 25.04 -3.6 25.5 89 -5.1 22.8
05:30 1019 30.09 848 25.04 -3.7 25.4 88 -5.4 22.4
05:35 1019 30.09 848 25.04 -3.7 25.4 87 -5.5 22
05:40 1019 30.09 848 25.04 -3.7 25.3 87 -5.7 21.8
05:45 1019 30.09 848 25.04 -3.8 25.1 85 -6 21.2
05:50 1019 30.09 849 25.07 -3.9 25 84 -6.2 20.8
05:55 1019 30.09 849 25.07 -3.9 24.9 81 -6.7 20
06:00 1020 30.12 849 25.07 -3.9 25 78 -7.2 19
06:05 1020 30.12 849 25.07 -3.9 25 75 -7.7 18.1
06:10 1020 30.12 849 25.07 -3.9 25 73 -8 17.6
06:15 1020 30.12 849 25.07 -3.9 24.9 73 -8.2 17.3
06:20 1020 30.12 849 25.07 -3.9 25 71 -8.4 16.9
06:25 1020 30.12 849 25.07 -3.9 25 71 -8.4 16.9
06:30 1020 30.12 849 25.07 -3.9 25.1 72 -8.1 17.4
06:35 1020 30.12 849 25.07 -3.8 25.1 70 -8.5 16.8
06:40 1020 30.12 849 25.07 -3.8 25.1 72 -8.2 17.3
06:45 1020 30.12 849 25.07 -3.9 25 73 -8.1 17.5
06:50 1020 30.12 849 25.07 -4.1 24.6 82 -6.8 19.8
06:55 1020 30.12 849 25.07 -4.4 24 83 -6.9 19.5
07:00 1020 30.12 849 25.07 -4.4 24 83 -7 19.5
07:05 1020 30.12 849 25.07 -4.4 24.2 83 -6.8 19.7
07:10 1020 30.12 850 25.1 -4.3 24.3 82 -6.9 19.6
07:15 1020 30.12 850 25.1 -4.1 24.5 79 -7.2 19
07:20 1020 30.12 850 25.1 -4.1 24.7 78 -7.3 18.9
07:25 1021 30.15 850 25.1 -4.1 24.6 78 -7.4 18.8
07:30 1021 30.15 850 25.1 -4.1 24.6 77 -7.6 18.3
07:35 1021 30.15 850 25.1 -4.1 24.7 78 -7.3 18.8
07:40 1021 30.15 850 25.1 -4.1 24.7 79 -7.1 19.1
07:45 1021 30.15 850 25.1 -4.1 24.6 78 -7.3 18.8
07:50 1021 30.15 850 25.1 -4.1 24.6 76 -7.7 18.1
07:55 1021 30.15 850 25.1 -4.1 24.5 74 -8.2 17.3
08:00 1021 30.15 850 25.1 -4 24.8 70 -8.7 16.4
08:05 1021 30.15 850 25.1 -3.9 25 71 -8.4 16.9
08:10 1021 30.15 850 25.1 -4 24.9 71 -8.5 16.7
08:15 1021 30.15 850 25.1 -4 24.8 68 -9.1 15.6
08:20 1021 30.15 850 25.1 -4 24.7 67 -9.3 15.3
08:25 1021 30.15 850 25.1 -4.1 24.6 69 -9 15.8
08:30 1021 30.15 850 25.1 -4.1 24.5 67 -9.4 15.1
08:35 1021 30.15 850 25.1 -4.1 24.7 63 -10 14
08:40 1021 30.15 850 25.1 -4 24.8 63 -10.1 13.9
08:45 1021 30.15 850 25.1 -4 24.8 60 -10.6 12.9
08:50 1021 30.15 850 25.1 -4 24.9 60 -10.5 13
08:55 1021 30.15 850 25.1 -3.9 24.9 63 -10 13.9
09:00 1021 30.15 850 25.1 -4 24.9 62 -10.1 13.8
09:05 1021 30.15 851 25.13 -4 24.8 63 -10 13.9
09:10 1021 30.15 851 25.13 -4 24.8 61 -10.4 13.3
09:15 1021 30.15 851 25.13 -4 24.7 61 -10.4 13.3
09:20 1021 30.15 851 25.13 -4 24.8 63 -10 13.9
09:25 1022 30.18 851 25.13 -4 24.8 62 -10.2 13.6
09:30 1022 30.18 851 25.13 -4 24.8 64 -9.9 14.2
09:35 1022 30.18 851 25.13 -4 24.8 63 -10 14.1
09:40 1022 30.18 851 25.13 -4 24.8 64 -9.8 14.3
09:45 1022 30.18 851 25.13 -4 24.8 65 -9.6 14.8
09:50 1022 30.18 851 25.13 -4 24.8 66 -9.4 15
09:55 1022 30.18 851 25.13 -4.2 24.5 67 -9.4 15.1
10:00 1022 30.18 851 25.13 -4.4 24.2 67 -9.5 14.8
10:05 1022 30.18 851 25.13 -4.4 24 66 -10 14.1
10:10 1022 30.18 851 25.13 -4.5 23.9 65 -10.2 13.7
10:15 1022 30.18 851 25.13 -4.4 24 64 -10.3 13.5
10:20 1022 30.18 851 25.13 -4.4 24.1 62 -10.6 13
10:25 1022 30.18 851 25.13 -4.2 24.4 61 -10.6 12.9
10:30 1022 30.18 851 25.13 -4 24.8 59 -10.8 12.5
10:35 1022 30.18 852 25.16 -3.9 25 60 -10.6 12.9
10:40 1023 30.21 852 25.16 -3.8 25.2 60 -10.5 13.2
10:45 1023 30.21 852 25.16 -4 24.7 77 -7.5 18.4
10:50 1023 30.21 852 25.16 -4.9 23.2 83 -7.4 18.6
10:55 1023 30.21 852 25.16 -5.3 22.5 85 -7.5 18.5
11:00 1023 30.21 853 25.19 -5.4 22.3 84 -7.7 18.1
11:05 1023 30.21 853 25.19 -5.2 22.7 80 -8.1 17.5
11:10 1024 30.24 853 25.19 -5 23.1 80 -7.9 17.8
11:15 1024 30.24 853 25.19 -4.6 23.7 78 -7.9 17.8
11:20 1024 30.24 853 25.19 -4.6 23.8 79 -7.6 18.3
11:25 1024 30.24 853 25.19 -4.3 24.2 78 -7.6 18.3
11:30 1024 30.24 853 25.19 -4.3 24.3 77 -7.8 18
11:35 1024 30.24 853 25.19 -4.2 24.4 77 -7.8 18
11:40 1024 30.24 853 25.19 -4.1 24.6 76 -7.7 18.2
11:45 1024 30.24 853 25.19 -3.9 24.9 74 -7.9 17.9
11:50 1024 30.24 853 25.19 -3.9 25 73 -8.1 17.4
11:55 1024 30.24 854 25.22 -3.9 25 70 -8.5 16.7
12:00 1024 30.24 854 25.22 -3.4 25.8 68 -8.4 16.8
12:05 1025 30.27 854 25.22 -3.2 26.2 65 -9 15.8
12:10 1025 30.27 854 25.22 -3.3 26.1 64 -9.2 15.5
12:15 1025 30.27 854 25.22 -3.4 25.8 66 -8.9 15.9
12:20 1025 30.27 854 25.22 -3.7 25.3 68 -8.7 16.3
12:25 1025 30.27 854 25.22 -3.8 25.1 69 -8.6 16.5
12:30 1025 30.27 854 25.22 -4 24.9 69 -8.7 16.3
12:35 1025 30.27 854 25.22 -4.4 24.2 73 -8.6 16.6
12:40 1025 30.27 854 25.22 -4.6 23.7 74 -8.5 16.7
12:45 1025 30.27 854 25.22 -5.1 22.8 74 -9.1 15.7
12:50 1025 30.27 854 25.22 -4.8 23.3 68 -9.9 14.3
12:55 1025 30.27 855 25.25 -4.4 24 65 -10 14
13:00 1025 30.27 855 25.25 -4.4 24.1 62 -10.6 12.9
13:05 1026 30.3 855 25.25 -4.4 24.1 62 -10.6 12.9
13:10 1026 30.3 855 25.25 -4.4 24.2 62 -10.6 13
13:15 1026 30.3 855 25.25 -4.4 24.1 60 -11.1 12.1
13:20 1026 30.3 855 25.25 -4.3 24.2 60 -10.9 12.4
13:25 1026 30.3 855 25.25 -4.2 24.4 61 -10.6 12.9
13:30 1026 30.3 855 25.25 -4.3 24.3 64 -10.1 13.8
13:35 1026 30.3 855 25.25 -4.4 24 65 -10 14
13:40 1026 30.3 855 25.25 -4.7 23.5 68 -9.8 14.4
13:45 1026 30.3 855 25.25 -5 22.9 65 -10.6 12.9
13:50 1026 30.3 856 25.28 -5.3 22.4 64 -11 12.1
13:55 1026 30.3 856 25.28 -5.3 22.4 65 -10.9 12.4
14:00 1027 30.33 856 25.28 -4.9 23.2 63 -10.8 12.5
14:05 1027 30.33 856 25.28 -4.4 24.1 62 -10.7 12.8
14:10 1027 30.33 856 25.28 -3.7 25.4 60 -10.4 13.2
14:15 1027 30.33 856 25.28 -3.9 24.9 58 -10.9 12.3
14:20 1027 30.33 856 25.28 -4.3 24.2 57 -11.6 11.1
14:25 1027 30.33 856 25.28 -4.7 23.6 59 -11.6 11.1
14:30 1027 30.33 856 25.28 -4.8 23.4 58 -11.7 10.9
14:35 1027 30.33 856 25.28 -4.9 23.1 59 -11.7 11
14:40 1027 30.33 856 25.28 -5 23.1 60 -11.5 11.3
14:45 1027 30.33 856 25.28 -4.8 23.3 59 -11.8 10.8
14:50 1027 30.33 856 25.28 -4.9 23.2 59 -11.7 10.9
14:55 1027 30.33 856 25.28 -4.9 23.3 59 -11.8 10.8
15:00 1027 30.33 857 25.31 -4.8 23.4 58 -11.9 10.6
15:05 1027 30.33 857 25.31 -4.6 23.8 55 -12.3 9.9
15:10 1027 30.33 857 25.31 -4.6 23.8 55 -12.4 9.7
15:15 1027 30.33 857 25.31 -4.5 23.9 56 -12.1 10.2
15:20 1028 30.36 857 25.31 -4.3 24.3 56 -11.9 10.6
15:25 1028 30.36 857 25.31 -3.9 25 53 -12 10.4
15:30 1028 30.36 857 25.31 -3.9 25 53 -12.1 10.2
15:35 1028 30.36 857 25.31 -3.2 26.2 49 -12.6 9.3
15:40 1028 30.36 857 25.31 -3 26.7 49 -12.2 10.1
15:45 1028 30.36 857 25.31 -2.8 26.9 50 -11.9 10.5
15:50 1028 30.36 857 25.31 -2.7 27.2 50 -11.7 10.9
15:55 1028 30.36 857 25.31 -2.7 27.1 51 -11.5 11.3
16:00 1028 30.36 857 25.31 -3.5 25.6 53 -11.8 10.8
16:05 1028 30.36 857 25.31 -4.2 24.5 56 -11.7 10.9
16:10 1028 30.36 857 25.31 -4.4 24.1 58 -11.4 11.6
16:15 1028 30.36 857 25.31 -4.8 23.4 60 -11.4 11.5
16:20 1028 30.36 857 25.31 -5 23.1 61 -11.4 11.5
16:25 1028 30.36 857 25.31 -5.3 22.5 61 -11.6 11.1
16:30 1028 30.36 857 25.31 -5.7 21.8 64 -11.4 11.4
16:35 1028 30.36 857 25.31 -5.9 21.4 66 -11.2 11.9
16:40 1028 30.36 857 25.31 -6 21.2 67 -11.2 11.9
16:45 1028 30.36 857 25.31 -6 21.3 67 -11.1 11.9
16:50 1028 30.36 857 25.31 -6 21.1 69 -10.9 12.3
16:55 1028 30.36 857 25.31 -5.9 21.3 66 -11.3 11.7
17:00 1028 30.36 857 25.31 -6 21.2 68 -11 12.3
17:05 1028 30.36 858 25.34 -5.7 21.8 66 -11.1 11.9
17:10 1028 30.36 858 25.34 -5.7 21.8 66 -11.1 12
17:15 1028 30.36 858 25.34 -5.9 21.5 67 -11.1 12
17:20 1028 30.36 858 25.34 -5.7 21.7 66 -11.1 12.1
17:25 1028 30.36 858 25.34 -5.6 22 63 -11.4 11.4
17:30 1029 30.39 858 25.34 -5.5 22.2 62 -11.6 11.1
17:35 1028 30.36 858 25.34 -5.4 22.3 60 -11.9 10.6
17:40 1029 30.39 858 25.34 -5.7 21.7 62 -11.8 10.7
17:45 1029 30.39 858 25.34 -5.9 21.4 61 -12.3 9.9
17:50 1029 30.39 858 25.34 -6.1 21 61 -12.5 9.5
17:55 1029 30.39 858 25.34 -6.2 20.8 60 -12.7 9.1
18:00 1029 30.39 858 25.34 -6.4 20.5 60 -12.9 8.8
18:05 1029 30.39 858 25.34 -6.6 20.2 61 -13 8.7
18:10 1029 30.39 858 25.34 -6.7 20 61 -13 8.6
18:15 1029 30.39 858 25.34 -6.6 20 60 -13.1 8.5
18:20 1029 30.39 858 25.34 -6.6 20 60 -13.1 8.4
18:25 1029 30.39 858 25.34 -6.9 19.7 61 -13.2 8.3
18:30 1029 30.39 858 25.34 -7.3 19 60 -13.7 7.3
18:35 1029 30.39 858 25.34 -7.3 18.9 59 -13.9 6.9
18:40 1029 30.39 858 25.34 -7.2 19 59 -14 6.8
18:45 1029 30.39 858 25.34 -7.1 19.2 58 -14 6.7
18:50 1029 30.39 858 25.34 -6.9 19.5 58 -13.9 7
18:55 1029 30.39 858 25.34 -6.9 19.6 57 -14.1 6.7
19:00 1029 30.39 858 25.34 -6.9 19.6 56 -14.2 6.4
19:05 1029 30.39 858 25.34 -7 19.5 56 -14.3 6.3
19:10 1029 30.39 858 25.34 -7.1 19.2 55 -14.7 5.5
19:15 1029 30.39 858 25.34 -7.1 19.2 54 -14.9 5.2
19:20 1029 30.39 858 25.34 -7.1 19.2 54 -15 5
19:25 1029 30.39 858 25.34 -7.2 19 55 -14.8 5.3
19:30 1029 30.39 858 25.34 -7.4 18.7 54 -15.1 4.8
19:35 1029 30.39 859 25.37 -7.4 18.6 54 -15.1 4.8
19:40 1029 30.39 858 25.34 -7.5 18.5 54 -15.2 4.7
19:45 1029 30.39 858 25.34 -7.6 18.3 53 -15.5 4
19:50 1029 30.39 859 25.37 -7.3 18.9 52 -15.6 4
19:55 1029 30.39 858 25.34 -6.9 19.5 50 -15.7 3.7
20:00 1029 30.39 858 25.34 -6.9 19.5 51 -15.5 4.1
20:05 1029 30.39 858 25.34 -7 19.4 51 -15.5 4.1
20:10 1029 30.39 858 25.34 -7.1 19.3 52 -15.4 4.3
20:15 1029 30.39 859 25.37 -7.2 19 53 -15.3 4.5
20:20 1029 30.39 858 25.34 -7.3 18.8 53 -15.3 4.4
20:25 1029 30.39 858 25.34 -7.4 18.7 55 -15 5
20:30 1029 30.39 858 25.34 -7.5 18.5 56 -14.9 5.2
20:35 1029 30.39 858 25.34 -7.9 17.7 56 -15.3 4.5
20:40 1029 30.39 858 25.34 -8.1 17.4 59 -14.7 5.5
20:45 1029 30.39 858 25.34 -8 17.6 59 -14.6 5.7
20:50 1029 30.39 858 25.34 -7.8 17.9 59 -14.5 5.9
20:55 1029 30.39 859 25.37 -7.9 17.9 59 -14.6 5.6
21:00 1029 30.39 859 25.37 -8 17.6 61 -14.2 6.4
21:05 1029 30.39 859 25.37 -8.1 17.5 61 -14.4 6.1
21:10 1029 30.39 859 25.37 -8.1 17.5 61 -14.4 6.1
21:15 1029 30.39 859 25.37 -8.2 17.2 58 -15 5
21:20 1029 30.39 859 25.37 -8.2 17.2 56 -15.4 4.2
21:25 1030 30.42 859 25.37 -8.1 17.3 58 -15 5
21:30 1029 30.39 859 25.37 -8.2 17.2 58 -15 5
21:35 1029 30.39 859 25.37 -8.4 16.9 60 -14.9 5.2
21:40 1029 30.39 859 25.37 -8.7 16.3 62 -14.7 5.5
21:45 1029 30.39 859 25.37 -9.1 15.7 64 -14.7 5.5
21:50 1029 30.39 859 25.37 -9.2 15.5 61 -15.4 4.3
21:55 1029 30.39 859 25.37 -9.1 15.7 60 -15.4 4.2
22:00 1029 30.39 859 25.37 -9 15.7 61 -15.3 4.5
22:05 1029 30.39 859 25.37 -9.2 15.5 61 -15.3 4.4
22:10 1030 30.42 859 25.37 -9.3 15.3 64 -14.9 5.1
22:15 1030 30.42 859 25.37 -9.4 15 65 -14.8 5.3
22:20 1030 30.42 859 25.37 -9.8 14.4 65 -15.1 4.8
22:25 1030 30.42 859 25.37 -9.9 14.1 65 -15.3 4.4
22:30 1029 30.39 859 25.37 -9.8 14.3 65 -15.2 4.7
22:35 1029 30.39 859 25.37 -9.9 14.2 65 -15.4 4.3
22:40 1029 30.39 859 25.37 -9.8 14.3 64 -15.4 4.3
22:45 1029 30.39 859 25.37 -9.7 14.6 65 -15.2 4.7
22:50 1029 30.39 859 25.37 -9.8 14.4 64 -15.3 4.4
22:55 1029 30.39 859 25.37 -9.9 14.3 64 -15.5 4.1
23:00 1029 30.39 858 25.34 -9.9 14.3 65 -15.3 4.5
23:05 1029 30.39 859 25.37 -10 14 66 -15.3 4.5
23:10 1029 30.39 859 25.37 -10 14 65 -15.4 4.3
23:15 1029 30.39 859 25.37 -9.8 14.3 64 -15.5 4.2
23:20 1029 30.39 858 25.34 -9.6 14.8 63 -15.4 4.3
23:25 1029 30.39 858 25.34 -9.6 14.7 64 -15.3 4.5
23:30 1029 30.39 858 25.34 -9.9 14.3 65 -15.3 4.5
23:35 1029 30.39 858 25.34 -9.9 14.2 64 -15.4 4.3
23:40 1029 30.39 858 25.34 -9.6 14.6 63 -15.4 4.2
23:45 1029 30.39 858 25.34 -9.5 14.9 61 -15.7 3.7
23:50 1029 30.39 858 25.34 -9.5 15 60 -15.9 3.3
23:55 1029 30.39 858 25.34 -9.4 15 60 -15.8 3.6
24:00 1029 30.39 858 25.34 -9.6 14.7 61 -15.7 3.7